Weather reports worldwide

Advertisment
Katesbridge, United Kingdom (99014): temperature & dewpoint: 14.06.2019 13:00:00 - 20.06.2019 13:00:00 (BST)Katesbridge, United Kingdom (99014): wind speed & gusts: 14.06.2019 13:00:00 - 20.06.2019 13:00:00 (BST)Katesbridge, United Kingdom (99014): wind direction: 14.06.2019 13:00:00 - 20.06.2019 13:00:00 (BST)Katesbridge, United Kingdom (99014): sunshine duration: 14.06.2019 13:00:00 - 20.06.2019 13:00:00 (BST)Katesbridge, United Kingdom (99014): precipitation: 14.06.2019 13:00:00 - 20.06.2019 13:00:00 (BST)
Date & Time tt [°C] td [°C] ff [km/h] ff [kn] fx [km/h] fx [kn] dd sd [min] rr [mm]
20.06.2019 13:00:00 12,0 9,5 9 5 - - W 6 1,2
20.06.2019 12:00:00 12,8 6,8 13 7 - - W 30 0,0
20.06.2019 11:00:00 13,3 8,0 9 5 - - WNW 24 0,0
20.06.2019 10:00:00 13,0 8,6 15 8 - - W 48 0,0
20.06.2019 09:00:00 11,7 8,6 11 6 - - W 54 0,0
20.06.2019 08:00:00 9,9 7,7 11 6 - - WSW 60 0,0
20.06.2019 07:00:00 8,5 7,5 8 4 - - WSW 54 0,0
20.06.2019 06:00:00 7,3 6,7 4 2 - - W 6 0,0
20.06.2019 05:00:00 7,2 6,7 8 4 - - W 0 0,0
20.06.2019 04:00:00 7,0 6,1 4 2 - - W 0 0,0
20.06.2019 03:00:00 8,0 7,1 5 3 - - W 0 0,0
20.06.2019 02:00:00 8,7 7,8 8 4 - - W 0 0,0
20.06.2019 01:00:00 9,0 7,6 2 1 - - WSW - 0,0
20.06.2019 00:00:00 10,0 8,4 4 2 - - W 0 0,2
19.06.2019 23:00:00 11,0 9,4 9 5 - - W 0 0,0
19.06.2019 22:00:00 11,7 9,7 8 4 - - WNW 0 0,4
19.06.2019 21:00:00 13,0 10,4 4 2 - - NW 6 0,0
19.06.2019 20:00:00 13,2 10,8 8 4 - - WSW 18 0,2
19.06.2019 19:00:00 14,0 9,3 16 9 - - SSW 12 0,0
19.06.2019 18:00:00 14,5 9,5 16 9 - - SW 0 0,0
19.06.2019 17:00:00 16,3 10,4 11 6 - - SW 12 0,0
19.06.2019 16:00:00 14,8 9,8 11 6 - - SSW 0 0,2
19.06.2019 15:00:00 16,4 8,9 11 6 - - W 18 0,0
19.06.2019 14:00:00 16,2 8,4 11 6 - - WSW 18 0,0
19.06.2019 13:00:00 15,0 9,2 9 5 - - WNW 0 0,0
19.06.2019 12:00:00 15,6 9,5 13 7 - - W 12 0,0
19.06.2019 11:00:00 15,7 10,2 8 4 - - WNW 24 0,0
19.06.2019 10:00:00 15,2 9,6 15 8 - - W 60 0,0
19.06.2019 09:00:00 13,7 10,1 8 4 - - W 60 0,0
19.06.2019 08:00:00 10,9 10,6 4 2 - - SSW 60 0,0
19.06.2019 07:00:00 8,2 8,2 2 1 - - SE 24 0,0
19.06.2019 06:00:00 3,7 3,5 2 1 - - NE 0 0,0
19.06.2019 05:00:00 2,6 2,1 0 0 - - N 0 0,0
19.06.2019 04:00:00 3,4 2,8 0 0 - - N 0 0,0
19.06.2019 03:00:00 4,5 4,0 0 0 - - N 0 0,0
19.06.2019 02:00:00 4,5 3,7 2 1 - - NNE 0 0,0
19.06.2019 01:00:00 5,0 3,9 2 1 - - NE - 0,0
19.06.2019 00:00:00 6,2 4,7 2 1 - - N 0 0,0
18.06.2019 23:00:00 8,2 6,0 2 1 - - NNW 0 0,0
18.06.2019 22:00:00 11,1 7,7 2 1 - - NE 0 0,0
18.06.2019 21:00:00 13,9 8,3 5 3 - - SW 12 0,0
18.06.2019 20:00:00 15,4 8,2 15 8 - - SSW 60 0,0
18.06.2019 19:00:00 16,9 9,7 13 7 - - SSW 30 0,0
18.06.2019 18:00:00 16,2 9,8 15 8 - - S 0 0,0
18.06.2019 17:00:00 17,0 8,5 15 8 - - SW 30 0,0
18.06.2019 16:00:00 18,4 8,7 11 6 - - WSW 30 0,0
18.06.2019 15:00:00 18,4 8,7 13 7 - - SW 48 0,0
18.06.2019 14:00:00 17,7 9,8 13 7 - - WSW 48 0,0
18.06.2019 13:00:00 16,6 8,4 15 8 - - SW 30 0,0
18.06.2019 12:00:00 15,1 7,5 9 5 - - W 30 0,0
18.06.2019 11:00:00 15,1 7,6 11 6 - - WSW 60 0,0
18.06.2019 10:00:00 14,2 8,8 13 7 - - WSW 60 0,0
18.06.2019 09:00:00 12,7 9,3 11 6 - - WSW 60 0,0
18.06.2019 08:00:00 11,4 9,5 11 6 - - SW 48 0,0
18.06.2019 07:00:00 10,2 9,4 13 7 - - SSW 0 0,0
18.06.2019 06:00:00 9,2 9,2 5 3 - - WSW 0 0,0
18.06.2019 05:00:00 4,6 4,3 2 1 - - NE 0 0,0
18.06.2019 04:00:00 5,5 5,2 4 2 - - NE 0 0,0
18.06.2019 03:00:00 4,2 3,5 2 1 - - SSE 0 0,0
18.06.2019 02:00:00 5,1 3,8 2 1 - - E 0 0,0
18.06.2019 01:00:00 8,1 7,1 4 2 - - SW - 0,0
18.06.2019 00:00:00 7,3 6,7 5 3 - - WSW 0 0,0
17.06.2019 23:00:00 7,5 5,5 2 1 - - S 0 0,0
17.06.2019 22:00:00 10,8 8,3 4 2 - - WSW 0 0,0
17.06.2019 21:00:00 12,5 8,6 8 4 - - SW 0 0,0
17.06.2019 20:00:00 14,7 8,3 15 8 - - W 6 0,0
17.06.2019 19:00:00 15,1 9,4 9 5 - - W 0 0,0
17.06.2019 18:00:00 15,7 11,3 9 5 - - W 12 1,2
17.06.2019 17:00:00 15,8 9,7 9 5 - - NW 6 0,0
17.06.2019 16:00:00 17,5 10,3 16 9 - - WSW 24 0,0
17.06.2019 15:00:00 17,0 10,2 21 11 48 26 SW 42 0,0
17.06.2019 14:00:00 16,3 10,1 24 13 46 25 SW 54 0,0
17.06.2019 13:00:00 14,3 11,2 18 10 48 26 SW 12 0,2
17.06.2019 12:00:00 13,1 9,5 21 11 - - SW 6 0,2
17.06.2019 11:00:00 13,9 9,4 15 8 - - SSW 18 0,0
17.06.2019 10:00:00 13,0 9,2 15 8 - - SW 0 0,0
17.06.2019 09:00:00 12,8 9,9 13 7 - - SW 12 0,0
17.06.2019 08:00:00 11,4 9,0 11 6 - - SW 18 0,0
17.06.2019 07:00:00 12,0 9,2 13 7 - - SSW 36 0,0
17.06.2019 06:00:00 11,1 8,6 11 6 - - SSW 0 0,0
17.06.2019 05:00:00 10,6 8,5 8 4 - - SSW 0 0,0
17.06.2019 04:00:00 10,5 8,7 8 4 - - S 0 0,0
17.06.2019 03:00:00 10,8 8,7 11 6 - - SW 0 0,0
17.06.2019 02:00:00 10,9 9,2 9 5 - - SSW 0 0,0
17.06.2019 01:00:00 10,4 8,7 11 6 - - SW - 0,0
17.06.2019 00:00:00 10,6 8,7 11 6 - - SW 0 0,0
16.06.2019 23:00:00 11,5 9,7 13 7 - - SW 0 0,0
16.06.2019 22:00:00 12,1 10,4 13 7 - - WSW 0 0,0
16.06.2019 21:00:00 12,7 11,6 13 7 - - WSW 0 1,0
16.06.2019 20:00:00 12,3 10,9 16 9 - - S 6 0,2
16.06.2019 19:00:00 13,1 10,7 15 8 - - SSE 0 0,0
16.06.2019 18:00:00 14,8 10,3 15 8 - - SE 6 0,0
16.06.2019 17:00:00 15,5 10,2 13 7 - - SE 6 0,0
16.06.2019 16:00:00 15,5 8,0 15 8 - - S 24 0,0
16.06.2019 15:00:00 16,5 9,5 13 7 - - S 54 0,0
16.06.2019 14:00:00 15,6 8,8 13 7 - - S 54 0,0
16.06.2019 13:00:00 15,3 7,8 16 9 - - SSW 42 0,0
16.06.2019 12:00:00 14,5 8,6 15 8 - - S 18 0,0
16.06.2019 11:00:00 14,0 8,4 9 5 - - SSW 6 0,0
16.06.2019 10:00:00 12,4 7,8 13 7 - - S 30 0,0
16.06.2019 09:00:00 12,3 8,4 9 5 - - SW 30 0,0
16.06.2019 08:00:00 11,0 8,4 4 2 - - S 60 0,0
16.06.2019 07:00:00 9,1 8,3 4 2 - - S 48 0,0
16.06.2019 06:00:00 6,1 5,6 0 0 - - N 6 0,0
16.06.2019 05:00:00 5,8 4,8 4 2 - - SE 0 0,0
16.06.2019 04:00:00 7,3 6,2 4 2 - - SE 0 0,0
16.06.2019 03:00:00 8,0 7,1 2 1 - - E 0 0,0
16.06.2019 02:00:00 8,3 7,1 2 1 - - SSW 0 0,0
16.06.2019 01:00:00 8,4 7,0 4 2 - - SE - 0,0
16.06.2019 00:00:00 9,1 7,4 4 2 - - SSE 0 0,0
15.06.2019 23:00:00 10,1 7,5 2 1 - - SSW 0 0,0
15.06.2019 22:00:00 11,5 8,5 4 2 - - SW 0 0,0
15.06.2019 21:00:00 12,2 9,0 4 2 - - S 0 0,0
15.06.2019 20:00:00 12,7 8,3 8 4 - - S 24 0,0
15.06.2019 19:00:00 13,4 8,4 11 6 - - SSW 0 0,0
15.06.2019 18:00:00 13,1 8,5 11 6 - - SSW 6 0,0
15.06.2019 17:00:00 14,4 9,4 9 5 - - S 12 0,0
15.06.2019 16:00:00 14,4 9,3 8 4 - - W 0 0,0
15.06.2019 15:00:00 12,7 8,4 9 5 - - W 12 0,2
15.06.2019 14:00:00 11,2 10,6 8 4 - - W 30 0,6
15.06.2019 13:00:00 10,2 9,6 8 4 - - WNW 0 0,0
15.06.2019 12:00:00 9,8 9,1 8 4 - - NW 0 0,2
15.06.2019 11:00:00 11,0 10,4 9 5 - - E 0 0,8
15.06.2019 10:00:00 9,9 9,5 5 3 - - NNW 0 3,2
15.06.2019 09:00:00 9,7 9,2 8 4 - - N 0 2,2
15.06.2019 08:00:00 9,3 8,8 5 3 - - NNE 24 2,2
15.06.2019 07:00:00 8,8 8,4 5 3 - - N 0 2,2
15.06.2019 06:00:00 8,7 8,1 4 2 - - N 0 3,2
15.06.2019 05:00:00 8,7 8,0 4 2 - - E 0 2,6
15.06.2019 04:00:00 9,1 8,1 5 3 - - SSE 0 0,8
15.06.2019 03:00:00 9,2 8,3 4 2 - - SSE 0 0,4
15.06.2019 02:00:00 9,1 8,0 5 3 - - SE 0 0,0
15.06.2019 01:00:00 9,3 7,9 5 3 - - ESE - 0,0
15.06.2019 00:00:00 9,7 7,4 5 3 - - SE 0 0,0
14.06.2019 23:00:00 10,5 8,5 5 3 - - S 0 0,0
14.06.2019 22:00:00 11,2 9,3 13 7 - - SSW 0 0,0
14.06.2019 21:00:00 11,7 9,6 9 5 - - SSE 12 0,0
14.06.2019 20:00:00 12,4 10,1 15 8 - - S 30 0,4
14.06.2019 19:00:00 11,4 9,8 13 7 - - SSE 0 0,2
14.06.2019 18:00:00 10,5 8,5 13 7 - - S 0 1,2
14.06.2019 17:00:00 11,1 9,1 13 7 - - SSE 0 0,6
14.06.2019 16:00:00 11,4 9,1 16 9 - - SSE 0 0,0
14.06.2019 15:00:00 11,6 8,3 15 8 - - S 6 0,2
14.06.2019 14:00:00 11,2 7,4 11 6 - - SSE 18 0,0
14.06.2019 13:00:00 10,9 7,3 13 7 - - S 0 0,0

tt = temperature
td = dewpoint
ff = wind speed
fx = gusts
dd = wind direction
sd = sunshine duration
rr = precipitation

Next stations